Marten — 5BNU3 — position and weather

sailwx.info

Track history (hours):
 
Tides and Currents Weather Stations Pressure Air Temp Water Temp Dewpoint Dewpoint Depression Visibility Wind Speed Wind Dir Waves Ship Positions

Marten

Last reported at 2016-Sep-30 06:34 UTC. Time now 2016-Sep-30 08:22 UTC.
Position N 51°28' E 000°21'.

Length 90 m; draft 3.8 m.

Type: Ship. MMSI: 212376000.

Date/timePositionNaut miles runAvg speedWind from/ knotsBaromVisibWave heightAir tempDewpointWater temp
2016-Sep-30 06:34N 51°28' E 000°21'0 0.0
2016-Sep-30 03:33N 51°28' E 000°21'0 0.0
2016-Sep-30 02:34N 51°28' E 000°21'0 0.0
2016-Sep-29 23:33N 51°28' E 000°21'0 0.0
2016-Sep-29 21:33N 51°28' E 000°21'0 0.3
2016-Sep-29 20:33N 51°27' E 000°21'1 1.4
2016-Sep-29 19:33N 51°27' E 000°23'24 8.1
2016-Sep-29 16:33N 51°30' E 001°02'10 9.8
2016-Sep-29 15:33N 51°29' E 001°18'9 9.3
2016-Sep-29 14:33N 51°29' E 001°32'9 9.4
2016-Sep-29 13:33N 51°29' E 001°47'33 6.5
2016-Sep-29 08:33N 51°23' E 002°39'9 9.4
2016-Sep-29 07:33N 51°22' E 002°54'53 7.6
2016-Sep-29 00:33N 51°20' E 004°18'6 2.0
2016-Sep-28 21:31N 51°15' E 004°24'0 0.0
2016-Sep-28 19:31N 51°15' E 004°24'0 0.0
2016-Sep-28 16:31N 51°15' E 004°24'0 0.0
2016-Sep-28 15:31N 51°15' E 004°24'0 0.0
2016-Sep-28 12:31N 51°15' E 004°24'0 0.0
2016-Sep-28 08:31N 51°15' E 004°24'0 0.0
2016-Sep-28 03:32N 51°15' E 004°24'3 3.6
2016-Sep-28 02:33N 51°17' E 004°20'4 3.6
2016-Sep-28 01:34N 51°21' E 004°17'5 2.5
2016-Sep-27 23:33N 51°24' E 004°11'37 9.3
2016-Sep-27 19:33N 51°24' E 003°12'23 4.6
2016-Sep-27 14:31N 51°20' E 002°35'0 0.0
2016-Sep-27 13:31N 51°20' E 002°35'0 0.0
2016-Sep-27 10:31N 51°20' E 002°35'75 7.6
2016-Sep-27 00:33N 51°30' E 000°35'21 1.3
2016-Sep-26 08:11N 51°30' E 000°01'0 0.0
2016-Sep-24 19:32N 51°30' E 000°01'6 5.7
2016-Sep-24 18:33N 51°30' E 000°10'9 9.2
2016-Sep-24 17:34N 51°27' E 000°24'7 7.0
2016-Sep-24 16:33N 51°30' E 000°34'15 6.6
2016-Sep-24 14:22N 51°30' E 000°58'0 0.0
2016-Sep-24 12:33N 51°30' E 000°58'0 0.0
2016-Sep-24 10:33N 51°30' E 000°58'4 4.0
2016-Sep-24 09:33N 51°30' E 001°04'137 9.8
2016-Sep-23 19:33N 52°29' E 004°24'14 7.3
2016-Sep-23 17:34N 52°26' E 004°47'2 2.0
2016-Sep-23 16:32N 52°25' E 004°50'0 0.0
2016-Sep-23 15:32N 52°25' E 004°50'0 0.0
2016-Sep-23 13:29N 52°25' E 004°50'0 0.0
2016-Sep-23 09:32N 52°25' E 004°50'0 0.0
2016-Sep-23 06:32N 52°25' E 004°50'0 0.0
2016-Sep-23 04:32N 52°25' E 004°50'0 0.0
2016-Sep-23 03:32N 52°25' E 004°50'0 0.0
2016-Sep-23 02:32N 52°25' E 004°50'0 0.0
2016-Sep-23 01:32N 52°25' E 004°50'0 0.0
2016-Sep-23 00:32N 52°25' E 004°50'0 0.2
2016-Sep-22 23:34N 52°25' E 004°50'19 6.4
2016-Sep-22 20:33N 52°29' E 004°19'8 1.0
2016-Sep-22 12:13N 52°27' E 004°06'46 6.0
2016-Sep-22 04:31N 52°03' E 003°01'1111.5
2016-Sep-22 03:33N 51°54' E 002°50'29 9.7
2016-Sep-22 00:33N 51°32' E 002°20'8 8.3
2016-Sep-21 23:34N 51°25' E 002°13'8 8.1
2016-Sep-21 22:34N 51°18' E 002°07'25 8.4
2016-Sep-21 19:34N 51°00' E 001°38'11311.3
2016-Sep-21 09:34N 50°11' W 001°01'  
Track history (hours):
 
Tides and Currents Weather Stations Pressure Air Temp Water Temp Dewpoint Dewpoint Depression Visibility Wind Speed Wind Dir Waves Ship Positions

Marten

Last reported at 2016-Sep-30 06:34 UTC. Time now 2016-Sep-30 08:22 UTC.
Position N 51°28' E 000°21'.

Length 90 m; draft 3.8 m.

Type: Ship. MMSI: 212376000.

Date/timePositionNaut miles runAvg speedWind from/ knotsBaromVisibWave heightAir tempDewpointWater temp
2016-Sep-30 06:34N 51°28' E 000°21'0 0.0
2016-Sep-30 03:33N 51°28' E 000°21'0 0.0
2016-Sep-30 02:34N 51°28' E 000°21'0 0.0
2016-Sep-29 23:33N 51°28' E 000°21'0 0.0
2016-Sep-29 21:33N 51°28' E 000°21'0 0.3
2016-Sep-29 20:33N 51°27' E 000°21'1 1.4
2016-Sep-29 19:33N 51°27' E 000°23'24 8.1
2016-Sep-29 16:33N 51°30' E 001°02'10 9.8
2016-Sep-29 15:33N 51°29' E 001°18'9 9.3
2016-Sep-29 14:33N 51°29' E 001°32'9 9.4
2016-Sep-29 13:33N 51°29' E 001°47'33 6.5
2016-Sep-29 08:33N 51°23' E 002°39'9 9.4
2016-Sep-29 07:33N 51°22' E 002°54'53 7.6
2016-Sep-29 00:33N 51°20' E 004°18'6 2.0
2016-Sep-28 21:31N 51°15' E 004°24'0 0.0
2016-Sep-28 19:31N 51°15' E 004°24'0 0.0
2016-Sep-28 16:31N 51°15' E 004°24'0 0.0
2016-Sep-28 15:31N 51°15' E 004°24'0 0.0
2016-Sep-28 12:31N 51°15' E 004°24'0 0.0
2016-Sep-28 08:31N 51°15' E 004°24'0 0.0
2016-Sep-28 03:32N 51°15' E 004°24'3 3.6
2016-Sep-28 02:33N 51°17' E 004°20'4 3.6
2016-Sep-28 01:34N 51°21' E 004°17'5 2.5
2016-Sep-27 23:33N 51°24' E 004°11'37 9.3
2016-Sep-27 19:33N 51°24' E 003°12'23 4.6
2016-Sep-27 14:31N 51°20' E 002°35'0 0.0
2016-Sep-27 13:31N 51°20' E 002°35'0 0.0
2016-Sep-27 10:31N 51°20' E 002°35'75 7.6
2016-Sep-27 00:33N 51°30' E 000°35'21 1.3
2016-Sep-26 08:11N 51°30' E 000°01'0 0.0
2016-Sep-24 19:32N 51°30' E 000°01'6 5.7
2016-Sep-24 18:33N 51°30' E 000°10'9 9.2
2016-Sep-24 17:34N 51°27' E 000°24'7 7.0
2016-Sep-24 16:33N 51°30' E 000°34'15 6.6
2016-Sep-24 14:22N 51°30' E 000°58'0 0.0
2016-Sep-24 12:33N 51°30' E 000°58'0 0.0
2016-Sep-24 10:33N 51°30' E 000°58'4 4.0
2016-Sep-24 09:33N 51°30' E 001°04'137 9.8
2016-Sep-23 19:33N 52°29' E 004°24'14 7.3
2016-Sep-23 17:34N 52°26' E 004°47'2 2.0
2016-Sep-23 16:32N 52°25' E 004°50'0 0.0
2016-Sep-23 15:32N 52°25' E 004°50'0 0.0
2016-Sep-23 13:29N 52°25' E 004°50'0 0.0
2016-Sep-23 09:32N 52°25' E 004°50'0 0.0
2016-Sep-23 06:32N 52°25' E 004°50'0 0.0
2016-Sep-23 04:32N 52°25' E 004°50'0 0.0
2016-Sep-23 03:32N 52°25' E 004°50'0 0.0
2016-Sep-23 02:32N 52°25' E 004°50'0 0.0
2016-Sep-23 01:32N 52°25' E 004°50'0 0.0
2016-Sep-23 00:32N 52°25' E 004°50'0 0.2
2016-Sep-22 23:34N 52°25' E 004°50'19 6.4
2016-Sep-22 20:33N 52°29' E 004°19'8 1.0
2016-Sep-22 12:13N 52°27' E 004°06'46 6.0
2016-Sep-22 04:31N 52°03' E 003°01'1111.5
2016-Sep-22 03:33N 51°54' E 002°50'29 9.7
2016-Sep-22 00:33N 51°32' E 002°20'8 8.3
2016-Sep-21 23:34N 51°25' E 002°13'8 8.1
2016-Sep-21 22:34N 51°18' E 002°07'25 8.4
2016-Sep-21 19:34N 51°00' E 001°38'11311.3
2016-Sep-21 09:34N 50°11' W 001°01'  

Dump ship's entire track history